Time;durP1;ratioP1;P1;durP2;ratioP2;P2;SDS_P1;SDS_P2;PMS_P1;PMS_P2;Temp;Humidity;BMP_temperature;BMP_pressure;BME280_temperature;BME280_humidity;BME280_pressure;Samples;Min_cycle;Max_cycle;Signal;HPM_P1;HPM_P2
2020/12/25 00:00:15;;;;;;;4.17;1.80;;;;;;;5.09;100.00;103051.07;1810295;79;26731;-75
2020/12/25 00:02:45;;;;;;;4.50;2.17;;;;;;;5.05;100.00;103057.47;1810228;79;26637;-76
2020/12/25 00:05:15;;;;;;;4.87;1.80;;;;;;;5.07;100.00;103054.01;1810020;78;26394;-74
2020/12/25 00:07:45;;;;;;;3.53;1.47;;;;;;;5.02;100.00;103046.85;1810252;79;26270;-74
2020/12/25 00:10:15;;;;;;;4.37;1.87;;;;;;;4.98;100.00;103037.27;1810065;79;26314;-74
2020/12/25 00:12:45;;;;;;;5.10;1.53;;;;;;;4.96;100.00;103031.13;1810259;79;26229;-73
2020/12/25 00:15:15;;;;;;;4.43;1.70;;;;;;;4.98;100.00;103038.65;1810083;79;26213;-73
2020/12/25 00:17:45;;;;;;;2.93;1.50;;;;;;;4.94;100.00;103052.48;1758640;82;26734;-77
2020/12/25 00:20:15;;;;;;;4.00;1.50;;;;;;;4.94;100.00;103045.59;1810221;79;26316;-77
2020/12/25 00:22:44;;;;;;;3.57;1.87;;;;;;;4.94;100.00;103043.70;1810105;79;26401;-77
2020/12/25 00:25:15;;;;;;;4.93;1.73;;;;;;;4.90;100.00;103051.16;1758673;82;26343;-76
2020/12/25 00:27:46;;;;;;;3.10;1.83;;;;;;;4.86;100.00;103045.72;1810166;79;26322;-75
2020/12/25 00:30:16;;;;;;;4.30;1.80;;;;;;;4.81;100.00;103052.33;1758566;81;26245;-74
2020/12/25 00:32:45;;;;;;;4.70;2.00;;;;;;;4.81;100.00;103044.06;1810165;79;26315;-74
2020/12/25 00:35:15;;;;;;;5.93;1.70;;;;;;;4.77;100.00;103046.87;1810045;79;26755;-74
2020/12/25 00:37:45;;;;;;;5.83;1.90;;;;;;;4.73;100.00;103049.69;1758574;81;26273;-74
2020/12/25 00:40:15;;;;;;;6.17;1.83;;;;;;;4.73;100.00;103045.55;1810209;79;26200;-74
2020/12/25 00:42:45;;;;;;;4.03;1.80;;;;;;;4.71;100.00;103057.27;1758619;82;26293;-74
2020/12/25 00:45:14;;;;;;;4.90;1.60;;;;;;;4.65;100.00;103052.03;1810236;79;26219;-74
2020/12/25 00:47:44;;;;;;;4.77;1.70;;;;;;;4.62;100.00;103046.06;1810056;79;26844;-74
2020/12/25 00:50:14;;;;;;;3.47;1.70;;;;;;;4.55;100.00;103041.31;1810250;79;26198;-74
2020/12/25 00:52:44;;;;;;;6.80;1.93;;;;;;;4.53;100.00;103039.30;1810133;79;26265;-74
2020/12/25 00:55:14;;;;;;;5.00;1.67;;;;;;;4.51;100.00;103049.63;1810127;79;26217;-74
2020/12/25 00:57:44;;;;;;;4.13;2.13;;;;;;;4.54;100.00;103055.25;1810166;79;26598;-74
2020/12/25 01:00:14;;;;;;;2.70;1.70;;;;;;;4.55;100.00;103056.45;1810340;79;26677;-74
2020/12/25 01:02:43;;;;;;;3.97;1.90;;;;;;;4.55;100.00;103053.70;1810333;79;26298;-75
2020/12/25 01:05:13;;;;;;;5.03;2.20;;;;;;;4.58;100.00;103050.55;1810118;77;26257;-75
2020/12/25 01:07:43;;;;;;;4.77;1.83;;;;;;;4.61;100.00;103056.73;1810075;79;26228;-74
2020/12/25 01:10:13;;;;;;;6.70;1.80;;;;;;;4.60;100.00;103051.75;1810129;79;26205;-74
2020/12/25 01:12:43;;;;;;;4.17;1.50;;;;;;;4.62;100.00;103057.08;1810034;79;26286;-74
2020/12/25 01:15:12;;;;;;;3.80;1.60;;;;;;;4.67;100.00;103047.17;1758543;82;26230;-74
2020/12/25 01:17:42;;;;;;;4.33;1.50;;;;;;;4.61;100.00;103061.72;1810160;79;26267;-74
2020/12/25 01:20:12;;;;;;;3.63;1.30;;;;;;;4.66;100.00;103050.14;1810121;79;26799;-74
2020/12/25 01:22:42;;;;;;;8.87;1.97;;;;;;;4.65;100.00;103044.30;1810157;79;26216;-74
2020/12/25 01:25:11;;;;;;;5.57;1.60;;;;;;;4.61;100.00;103044.35;1758598;82;26230;-74
2020/12/25 01:27:41;;;;;;;4.30;1.30;;;;;;;4.57;100.00;103061.26;1810138;79;26644;-74
2020/12/25 01:30:11;;;;;;;4.77;1.17;;;;;;;4.53;100.00;103065.95;1810046;79;26234;-74
2020/12/25 01:32:41;;;;;;;3.97;1.63;;;;;;;4.49;100.00;103072.89;1810005;79;26649;-74
2020/12/25 01:35:11;;;;;;;2.87;1.40;;;;;;;4.50;100.00;103075.44;1758491;80;26374;-74
2020/12/25 01:37:41;;;;;;;4.67;1.83;;;;;;;4.52;100.00;103076.11;1810189;79;26205;-73
2020/12/25 01:40:11;;;;;;;3.10;1.87;;;;;;;4.46;100.00;103074.11;1810094;79;26308;-73
2020/12/25 01:42:41;;;;;;;4.20;1.60;;;;;;;4.42;100.00;103078.80;1810101;79;26209;-74
2020/12/25 01:45:11;;;;;;;3.77;1.57;;;;;;;4.36;100.00;103087.32;1809999;79;26269;-74
2020/12/25 01:47:41;;;;;;;3.17;1.73;;;;;;;4.30;100.00;103093.56;1758563;82;26312;-74
2020/12/25 01:50:13;;;;;;;6.27;2.10;;;;;;;4.34;100.00;103089.91;1810182;79;26295;-74
2020/12/25 01:52:45;;;;;;;3.87;1.63;;;;;;;4.23;100.00;103100.02;1810106;79;26233;-74
2020/12/25 01:55:18;;;;;;;3.17;1.57;;;;;;;4.20;100.00;103083.34;1810032;79;26833;-73
2020/12/25 01:57:48;;;;;;;4.13;1.50;;;;;;;4.23;100.00;103083.52;1810032;79;26644;-73
2020/12/25 02:00:18;;;;;;;3.03;1.37;;;;;;;4.11;100.00;103094.10;1810234;79;26214;-73
2020/12/25 02:02:47;;;;;;;2.93;1.37;;;;;;;4.11;100.00;103094.96;1810025;79;26277;-73
2020/12/25 02:05:17;;;;;;;5.30;2.00;;;;;;;4.01;100.00;103099.90;1810084;78;26340;-73
2020/12/25 02:07:47;;;;;;;5.17;1.73;;;;;;;4.01;100.00;103108.66;1758531;82;26226;-73
2020/12/25 02:10:18;;;;;;;7.80;1.70;;;;;;;4.03;100.00;103110.69;1810184;79;26229;-73
2020/12/25 02:12:48;;;;;;;5.63;1.80;;;;;;;4.01;100.00;103104.02;1810109;79;26640;-74
2020/12/25 02:15:18;;;;;;;2.47;1.40;;;;;;;4.00;100.00;103105.57;1758560;82;26676;-74
2020/12/25 02:17:48;;;;;;;3.23;1.50;;;;;;;3.78;100.00;103100.96;1810134;79;26212;-74
2020/12/25 02:20:18;;;;;;;3.83;1.57;;;;;;;3.90;100.00;103106.34;1810115;79;26762;-73
2020/12/25 02:22:48;;;;;;;3.73;1.43;;;;;;;3.85;100.00;103112.95;1758569;82;26355;-73
2020/12/25 02:25:19;;;;;;;3.07;1.37;;;;;;;3.91;100.00;103113.56;1810165;79;26343;-73
2020/12/25 02:27:49;;;;;;;3.53;1.40;;;;;;;3.90;100.00;103114.08;1809983;79;26232;-74
2020/12/25 02:30:20;;;;;;;2.87;1.40;;;;;;;3.81;100.00;103124.81;1758589;82;26237;-74
2020/12/25 02:32:51;;;;;;;4.57;2.00;;;;;;;3.81;100.00;103127.56;1810065;79;26229;-74
2020/12/25 02:35:21;;;;;;;3.30;1.70;;;;;;;3.87;100.00;103124.08;1809919;79;26277;-74
2020/12/25 02:37:51;;;;;;;3.70;1.70;;;;;;;3.86;100.00;103127.86;1810016;79;26646;-74
2020/12/25 02:40:21;;;;;;;3.17;1.70;;;;;;;3.84;100.00;103131.34;1758502;82;26242;-74
2020/12/25 02:42:50;;;;;;;3.17;1.90;;;;;;;3.83;100.00;103130.13;1810057;79;26213;-73
2020/12/25 02:45:20;;;;;;;1.87;1.30;;;;;;;3.77;100.00;103128.97;1810047;79;26201;-74
2020/12/25 02:47:50;;;;;;;4.50;1.40;;;;;;;3.70;100.00;103123.88;1758524;82;26307;-74
2020/12/25 02:50:20;;;;;;;3.07;1.67;;;;;;;3.68;100.00;103125.44;1810105;79;26200;-74
2020/12/25 02:52:49;;;;;;;6.17;1.80;;;;;;;3.76;100.00;103122.30;1758500;81;26752;-74
2020/12/25 02:55:19;;;;;;;6.50;1.37;;;;;;;3.71;100.00;103128.87;1810216;79;26204;-74
2020/12/25 02:57:49;;;;;;;3.97;1.40;;;;;;;3.68;100.00;103130.62;1810080;79;26198;-74
2020/12/25 03:00:19;;;;;;;4.50;1.60;;;;;;;3.65;100.00;103128.56;1758567;82;26233;-74
2020/12/25 03:02:49;;;;;;;3.30;1.47;;;;;;;3.61;100.00;103130.48;1810170;79;26208;-73
2020/12/25 03:05:19;;;;;;;3.77;1.40;;;;;;;3.53;100.00;103134.16;1810113;77;26310;-73
2020/12/25 03:07:48;;;;;;;4.83;1.70;;;;;;;3.53;100.00;103131.41;1810111;79;26201;-73
2020/12/25 03:10:18;;;;;;;1.47;1.17;;;;;;;3.53;100.00;103130.55;1758586;81;26759;-73
2020/12/25 03:12:48;;;;;;;3.53;1.30;;;;;;;3.44;100.00;103133.02;1810119;79;26284;-73
2020/12/25 03:15:18;;;;;;;6.20;1.50;;;;;;;3.53;100.00;103138.27;1810110;79;26212;-73
2020/12/25 03:17:47;;;;;;;5.00;1.80;;;;;;;3.50;100.00;103127.66;1810113;79;26267;-73
2020/12/25 03:20:17;;;;;;;3.70;1.80;;;;;;;3.44;100.00;103134.39;1810135;79;26209;-73
2020/12/25 03:22:47;;;;;;;3.27;1.40;;;;;;;3.42;100.00;103140.59;1758717;81;26308;-73
2020/12/25 03:25:17;;;;;;;4.07;1.50;;;;;;;3.41;100.00;103132.88;1810214;79;26259;-73
2020/12/25 03:27:47;;;;;;;3.00;1.30;;;;;;;3.38;100.00;103137.33;1810096;79;26201;-73
2020/12/25 03:30:16;;;;;;;4.70;1.43;;;;;;;3.48;100.00;103142.59;1758633;82;26288;-73
2020/12/25 03:32:47;;;;;;;3.37;1.53;;;;;;;3.40;100.00;103138.02;1810167;79;26675;-73
2020/12/25 03:35:16;;;;;;;2.67;1.83;;;;;;;3.46;100.00;103150.19;1810210;79;26217;-73
2020/12/25 03:37:46;;;;;;;2.87;1.30;;;;;;;3.40;100.00;103142.66;1810032;79;26409;-73
2020/12/25 03:40:16;;;;;;;4.43;1.43;;;;;;;3.35;100.00;103147.33;1810152;79;26193;-73
2020/12/25 03:42:47;;;;;;;2.67;1.60;;;;;;;3.41;100.00;103138.88;1758625;81;26355;-73
2020/12/25 03:45:17;;;;;;;3.90;1.33;;;;;;;3.38;100.00;103139.25;1810201;79;26216;-73
2020/12/25 03:47:47;;;;;;;5.03;2.33;;;;;;;3.34;100.00;103145.60;1810136;79;26212;-73
2020/12/25 03:50:17;;;;;;;3.90;1.53;;;;;;;3.36;100.00;103144.06;1810075;79;26700;-73
2020/12/25 03:52:47;;;;;;;5.00;1.60;;;;;;;3.35;100.00;103139.08;1810120;79;26330;-73
2020/12/25 03:55:16;;;;;;;3.57;1.90;;;;;;;3.30;100.00;103136.53;1810064;79;26221;-73
2020/12/25 03:57:46;;;;;;;4.70;1.30;;;;;;;3.30;100.00;103128.29;1758504;81;26770;-73
2020/12/25 04:00:16;;;;;;;4.43;1.30;;;;;;;3.32;100.00;103130.35;1810178;79;26282;-73
2020/12/25 04:02:46;;;;;;;3.13;1.43;;;;;;;3.25;100.00;103131.61;1758575;82;27053;-73
2020/12/25 04:05:15;;;;;;;3.13;1.80;;;;;;;3.27;100.00;103132.78;1810228;77;26228;-75
2020/12/25 04:07:45;;;;;;;5.07;1.80;;;;;;;3.24;100.00;103132.64;1758531;82;26692;-73
2020/12/25 04:10:15;;;;;;;3.37;1.10;;;;;;;3.17;100.00;103129.75;1810203;79;26295;-75
2020/12/25 04:12:45;;;;;;;3.77;2.03;;;;;;;3.09;100.00;103127.56;1810088;79;26209;-73
2020/12/25 04:15:14;;;;;;;4.33;1.83;;;;;;;3.15;100.00;103129.09;1810166;79;26242;-73
2020/12/25 04:17:44;;;;;;;3.73;1.57;;;;;;;3.13;100.00;103133.89;1810047;79;26295;-73
2020/12/25 04:20:14;;;;;;;5.50;1.93;;;;;;;3.15;100.00;103126.34;1758592;82;26771;-73
2020/12/25 04:22:44;;;;;;;2.50;1.30;;;;;;;3.18;100.00;103135.58;1810289;79;26212;-73
2020/12/25 04:25:14;;;;;;;3.57;1.37;;;;;;;3.17;100.00;103132.49;1810170;79;26690;-76
2020/12/25 04:27:43;;;;;;;5.67;1.80;;;;;;;3.11;100.00;103124.13;1810090;79;26240;-75
2020/12/25 04:30:13;;;;;;;4.80;1.60;;;;;;;3.10;100.00;103133.41;1810084;79;26295;-75
2020/12/25 04:32:43;;;;;;;4.60;1.50;;;;;;;3.09;100.00;103135.80;1810210;79;26644;-75
2020/12/25 04:35:13;;;;;;;2.77;1.50;;;;;;;3.11;100.00;103131.00;1810105;79;26213;-75
2020/12/25 04:37:43;;;;;;;3.97;1.70;;;;;;;3.06;100.00;103128.80;1809910;79;26277;-74
2020/12/25 04:40:12;;;;;;;3.63;1.30;;;;;;;3.08;100.00;103132.74;1810143;79;26312;-74
2020/12/25 04:42:44;;;;;;;4.37;1.33;;;;;;;3.01;100.00;103131.73;1758581;82;26304;-74
2020/12/25 04:45:15;;;;;;;4.20;1.40;;;;;;;2.99;100.00;103142.05;1810089;79;26288;-73
2020/12/25 04:47:46;;;;;;;3.87;1.50;;;;;;;3.00;100.00;103130.88;1810165;79;26209;-75
2020/12/25 04:50:16;;;;;;;5.23;1.77;;;;;;;2.99;100.00;103121.46;1758544;82;26359;-73
2020/12/25 04:52:49;;;;;;;3.73;1.43;;;;;;;3.04;100.00;103129.48;1810173;79;26252;-73
2020/12/25 04:55:19;;;;;;;5.00;1.70;;;;;;;3.01;100.00;103130.36;1809994;79;26202;-75
2020/12/25 04:57:51;;;;;;;3.63;1.57;;;;;;;2.98;100.00;103134.33;1810016;79;26326;-74
2020/12/25 05:00:23;;;;;;;4.87;1.60;;;;;;;2.97;100.00;103130.38;1798297;78;930769;-74
2020/12/25 05:02:54;;;;;;;2.00;1.43;;;;;;;2.95;100.00;103125.60;1810244;79;26216;-75
2020/12/25 05:05:29;;;;;;;2.40;1.50;;;;;;;2.90;100.00;103137.63;1810100;78;26265;-74
2020/12/25 05:08:00;;;;;;;2.33;1.33;;;;;;;2.84;100.00;103146.05;1758591;82;26739;-74
2020/12/25 05:10:30;;;;;;;3.80;1.30;;;;;;;2.91;100.00;103151.70;1810207;79;26217;-74
2020/12/25 05:12:59;;;;;;;4.43;1.53;;;;;;;2.99;100.00;103154.41;1810073;79;26286;-74
2020/12/25 05:15:29;;;;;;;3.10;1.43;;;;;;;2.97;100.00;103149.09;1810083;79;27880;-74
2020/12/25 05:18:01;;;;;;;3.90;1.23;;;;;;;3.03;100.00;103156.62;1810085;79;26287;-74
2020/12/25 05:20:31;;;;;;;4.00;1.37;;;;;;;3.05;100.00;103153.67;1810022;79;26261;-74
2020/12/25 05:23:11;;;;;;;5.47;1.20;;;;;;;2.98;100.00;103156.30;1758576;81;26304;-74
2020/12/25 05:25:42;;;;;;;3.10;1.23;;;;;;;2.96;100.00;103160.23;1810082;79;26716;-74
2020/12/25 05:28:16;;;;;;;1.67;1.33;;;;;;;2.92;100.00;103162.48;1758589;82;26238;-73
2020/12/25 05:30:47;;;;;;;2.43;1.27;;;;;;;2.87;100.00;103169.56;1810166;79;26201;-73
2020/12/25 05:33:18;;;;;;;2.87;1.13;;;;;;;2.93;100.00;103172.95;1810200;79;26213;-74
2020/12/25 05:35:50;;;;;;;4.93;1.43;;;;;;;2.92;100.00;103167.12;1810035;79;26775;-74
2020/12/25 05:38:20;;;;;;;2.90;1.27;;;;;;;2.95;100.00;103171.73;1758536;81;26296;-73
2020/12/25 05:40:50;;;;;;;2.63;1.30;;;;;;;2.96;100.00;103176.70;1810134;79;26229;-73
2020/12/25 05:43:20;;;;;;;5.70;1.60;;;;;;;2.89;100.00;103178.46;1758625;82;26242;-74
2020/12/25 05:45:50;;;;;;;3.00;1.00;;;;;;;2.94;100.00;103178.27;1810165;79;26265;-74
2020/12/25 05:48:20;;;;;;;3.03;1.20;;;;;;;2.88;100.00;103176.74;1758659;82;26249;-74
2020/12/25 05:50:51;;;;;;;1.80;0.93;;;;;;;2.97;100.00;103177.05;1810106;79;26719;-74
2020/12/25 05:53:21;;;;;;;2.07;1.13;;;;;;;2.85;100.00;103176.59;1810053;79;26202;-73
2020/12/25 05:55:53;;;;;;;4.03;1.70;;;;;;;2.83;100.00;103175.05;1810059;79;26279;-74
2020/12/25 05:58:25;;;;;;;3.53;1.17;;;;;;;2.98;100.00;103174.66;1810040;79;27880;-73
2020/12/25 06:00:56;;;;;;;3.40;1.03;;;;;;;2.95;100.00;103177.22;1758488;82;26249;-73
2020/12/25 06:03:28;;;;;;;4.60;1.20;;;;;;;2.99;100.00;103180.48;1810200;79;26709;-75
2020/12/25 06:06:00;;;;;;;2.77;1.10;;;;;;;2.93;100.00;103180.67;1810005;77;26714;-74
2020/12/25 06:08:36;;;;;;;3.20;1.20;;;;;;;2.96;100.00;103176.19;1810120;79;26212;-74
2020/12/25 06:11:06;;;;;;;1.70;1.03;;;;;;;2.95;100.00;103181.34;1810027;79;26205;-73
2020/12/25 06:13:43;;;;;;;4.10;1.00;;;;;;;2.81;100.00;103189.47;1810142;79;26238;-73
2020/12/25 06:16:15;;;;;;;3.70;1.33;;;;;;;2.89;100.00;103190.81;1758534;82;26306;-74
2020/12/25 06:18:49;;;;;;;4.10;1.30;;;;;;;2.79;100.00;103195.13;1810212;79;26241;-73
2020/12/25 06:21:22;;;;;;;2.33;1.20;;;;;;;2.88;100.00;103195.95;1809958;79;26785;-73
2020/12/25 06:23:54;;;;;;;5.90;1.20;;;;;;;2.92;100.00;103200.92;1810202;79;26279;-73
2020/12/25 06:26:26;;;;;;;3.30;1.03;;;;;;;2.68;100.00;103210.61;1809995;79;26200;-73
2020/12/25 06:28:56;;;;;;;3.00;1.03;;;;;;;2.82;100.00;103209.90;1809988;79;26724;-73
2020/12/25 06:31:42;;;;;;;2.67;1.13;;;;;;;2.91;100.00;103206.06;1758550;82;26238;-73
2020/12/25 06:34:14;;;;;;;3.40;1.33;;;;;;;2.89;100.00;103208.66;1810100;79;26824;-75
2020/12/25 06:36:48;;;;;;;2.03;1.10;;;;;;;2.91;100.00;103212.09;1810018;79;26216;-74
2020/12/25 06:39:21;;;;;;;2.77;0.80;;;;;;;2.88;100.00;103214.66;1809935;79;26327;-74
2020/12/25 06:41:50;;;;;;;2.80;1.00;;;;;;;2.87;100.00;103216.23;1810042;79;26247;-74
2020/12/25 06:44:20;;;;;;;2.67;1.30;;;;;;;2.82;100.00;103222.77;1758424;82;26876;-74
2020/12/25 06:46:51;;;;;;;2.57;1.20;;;;;;;2.91;100.00;103219.78;1810005;79;26245;-74
2020/12/25 06:49:22;;;;;;;3.47;1.07;;;;;;;2.90;100.00;103229.08;1810051;79;26331;-75
2020/12/25 06:51:52;;;;;;;2.53;1.23;;;;;;;2.89;100.00;103226.50;1810132;79;26229;-75
2020/12/25 06:54:24;;;;;;;4.10;1.13;;;;;;;2.84;100.00;103234.40;1810018;79;26701;-75
2020/12/25 06:56:55;;;;;;;4.47;1.30;;;;;;;2.70;100.00;103239.58;1810060;79;26193;-74
2020/12/25 06:59:25;;;;;;;2.87;1.20;;;;;;;2.51;100.00;103237.23;1810031;79;26217;-73
2020/12/25 07:01:56;;;;;;;3.50;1.30;;;;;;;2.42;100.00;103243.75;1810034;79;26193;-73
2020/12/25 07:04:28;;;;;;;5.03;1.23;;;;;;;2.40;100.00;103244.42;1809961;77;26806;-73
2020/12/25 07:07:00;;;;;;;3.13;1.40;;;;;;;2.42;100.00;103243.75;1810066;79;26659;-74
2020/12/25 07:09:40;;;;;;;2.27;1.17;;;;;;;2.29;100.00;103240.67;1810071;79;26215;-74
2020/12/25 07:12:12;;;;;;;1.87;1.27;;;;;;;2.20;100.00;103241.70;1810028;79;26253;-74
2020/12/25 07:14:42;;;;;;;2.27;1.20;;;;;;;2.12;100.00;103237.59;1810080;79;26675;-74
2020/12/25 07:17:12;;;;;;;1.77;1.33;;;;;;;2.25;100.00;103247.54;1809990;79;26312;-73
2020/12/25 07:19:43;;;;;;;2.80;1.40;;;;;;;2.12;100.00;103248.56;1810076;79;26267;-73
2020/12/25 07:22:13;;;;;;;2.10;1.20;;;;;;;2.17;100.00;103255.26;1810069;79;26622;-73
2020/12/25 07:24:44;;;;;;;2.40;1.10;;;;;;;2.08;100.00;103257.65;1809924;79;26711;-73
2020/12/25 07:27:15;;;;;;;3.40;1.17;;;;;;;2.08;100.00;103262.27;1809993;79;26295;-74
2020/12/25 07:29:46;;;;;;;4.93;1.50;;;;;;;2.00;100.00;103258.16;1809930;79;26636;-74
2020/12/25 07:32:16;;;;;;;2.50;1.30;;;;;;;1.96;100.00;103258.16;1758557;82;26352;-73
2020/12/25 07:34:45;;;;;;;2.97;1.10;;;;;;;1.83;100.00;103260.88;1810075;79;26217;-75
2020/12/25 07:37:15;;;;;;;4.80;1.30;;;;;;;1.76;100.00;103269.41;1810120;79;26221;-74
2020/12/25 07:39:45;;;;;;;3.20;1.30;;;;;;;1.81;100.00;103273.87;1804329;79;26337;-73
2020/12/25 07:42:17;;;;;;;3.70;1.40;;;;;;;1.88;100.00;103274.59;1792319;79;26193;-72
2020/12/25 07:44:48;;;;;;;4.97;1.50;;;;;;;1.85;100.00;103273.02;1810241;79;26222;-73
2020/12/25 07:47:18;;;;;;;3.17;1.37;;;;;;;2.01;100.00;103268.10;1810322;79;26279;-73
2020/12/25 07:49:47;;;;;;;2.80;1.10;;;;;;;1.99;100.00;103269.63;1810160;79;26697;-73
2020/12/25 07:52:17;;;;;;;4.77;1.00;;;;;;;2.04;100.00;103264.50;1810309;79;26209;-76
2020/12/25 07:54:47;;;;;;;2.27;1.30;;;;;;;1.98;100.00;103265.67;1810277;79;26200;-74
2020/12/25 07:57:19;;;;;;;4.13;1.20;;;;;;;1.99;100.00;103274.25;1810160;79;26201;-74
2020/12/25 07:59:50;;;;;;;2.20;1.47;;;;;;;1.89;100.00;103274.91;1810164;79;26199;-73
2020/12/25 08:02:20;;;;;;;3.23;1.13;;;;;;;1.96;100.00;103266.38;1810055;79;26770;-74
2020/12/25 08:04:50;;;;;;;2.23;1.43;;;;;;;1.88;100.00;103271.85;1810152;78;26252;-74
2020/12/25 08:07:20;;;;;;;1.37;1.00;;;;;;;1.93;100.00;103271.66;1810093;79;26270;-73
2020/12/25 08:09:52;;;;;;;2.17;1.17;;;;;;;1.91;100.00;103275.11;1810143;79;26205;-74
2020/12/25 08:12:25;;;;;;;3.13;1.10;;;;;;;1.93;100.00;103278.52;1758624;81;26237;-74
2020/12/25 08:14:55;;;;;;;1.63;1.10;;;;;;;1.98;100.00;103278.88;1810161;79;26640;-76
2020/12/25 08:17:25;;;;;;;2.80;1.20;;;;;;;1.98;100.00;103282.12;1810151;79;26328;-74
2020/12/25 08:19:55;;;;;;;3.70;1.37;;;;;;;1.84;100.00;103283.63;1810065;79;26283;-74
2020/12/25 08:22:25;;;;;;;2.70;1.30;;;;;;;1.99;100.00;103289.33;1810118;79;26283;-73
2020/12/25 08:24:56;;;;;;;2.23;1.17;;;;;;;2.06;100.00;103288.98;1810142;79;26221;-73
2020/12/25 08:27:32;;;;;;;3.10;1.20;;;;;;;2.01;100.00;103299.62;1810072;79;26734;-75
2020/12/25 08:30:04;;;;;;;2.73;1.00;;;;;;;2.04;100.00;103297.40;1758116;81;26315;-75
2020/12/25 08:32:35;;;;;;;3.53;1.30;;;;;;;1.98;100.00;103302.17;1810252;79;26276;-72
2020/12/25 08:35:16;;;;;;;2.40;1.20;;;;;;;2.09;100.00;103291.41;1810065;79;26754;-74
2020/12/25 08:37:57;;;;;;;3.23;1.33;;;;;;;2.10;100.00;103298.58;1810133;79;26271;-73
2020/12/25 08:40:32;;;;;;;2.30;1.00;;;;;;;2.02;100.00;103302.17;1805121;79;26259;-74
2020/12/25 08:43:10;;;;;;;2.63;1.30;;;;;;;2.12;100.00;103306.14;1789166;79;26274;-76
2020/12/25 08:45:42;;;;;;;2.40;1.30;;;;;;;2.16;100.00;103302.03;1810079;79;26714;-72
2020/12/25 08:48:13;;;;;;;2.50;1.30;;;;;;;2.16;100.00;103297.91;1757486;81;26293;-71
2020/12/25 08:50:43;;;;;;;2.50;1.10;;;;;;;2.12;100.00;103293.80;1810139;79;26696;-75
2020/12/25 08:53:18;;;;;;;3.23;1.33;;;;;;;2.09;100.00;103290.03;1810007;79;26209;-72
2020/12/25 08:55:50;;;;;;;3.17;1.37;;;;;;;2.11;100.00;103287.97;1758518;82;26249;-72
2020/12/25 08:58:22;;;;;;;1.30;1.20;;;;;;;2.11;100.00;103292.08;1810108;79;26304;-75
2020/12/25 09:01:04;;;;;;;4.00;1.37;;;;;;;2.13;100.00;103294.16;1810070;79;26655;-71
2020/12/25 09:03:41;;;;;;;2.53;0.90;;;;;;;2.16;100.00;103295.17;1758602;82;26241;-73
2020/12/25 09:06:12;;;;;;;4.83;1.50;;;;;;;2.03;100.00;103303.89;1810049;77;26254;-73
2020/12/25 09:08:42;;;;;;;3.40;1.23;;;;;;;2.15;100.00;103311.27;1758528;82;26249;-73
2020/12/25 09:11:13;;;;;;;3.50;1.33;;;;;;;2.12;100.00;103316.59;1810152;79;26330;-75
2020/12/25 09:13:44;;;;;;;3.13;1.30;;;;;;;2.14;100.00;103317.27;1810017;79;26770;-73
2020/12/25 09:16:14;;;;;;;3.23;1.10;;;;;;;2.14;100.00;103313.16;1810056;79;26655;-73
2020/12/25 09:18:44;;;;;;;5.03;1.33;;;;;;;2.15;100.00;103318.13;1810042;79;26713;-72
2020/12/25 09:21:15;;;;;;;1.80;1.47;;;;;;;2.24;100.00;103317.97;1810027;79;26230;-72
2020/12/25 09:23:45;;;;;;;2.70;1.37;;;;;;;2.31;100.00;103318.68;1758542;82;26742;-74
2020/12/25 09:26:16;;;;;;;1.73;1.13;;;;;;;2.37;100.00;103316.61;1810233;79;26280;-74
2020/12/25 09:28:46;;;;;;;2.20;1.20;;;;;;;2.36;100.00;103319.86;1810049;79;26201;-76
2020/12/25 09:31:16;;;;;;;3.03;1.27;;;;;;;2.43;100.00;103311.82;1810074;79;26245;-73
2020/12/25 09:33:46;;;;;;;2.70;1.53;;;;;;;2.48;100.00;103310.25;1810064;79;26758;-74
2020/12/25 09:36:15;;;;;;;3.77;1.60;;;;;;;2.48;100.00;103311.63;1810009;79;26268;-74
2020/12/25 09:38:45;;;;;;;3.63;1.60;;;;;;;2.56;100.00;103311.66;1758554;82;26861;-73
2020/12/25 09:41:16;;;;;;;1.80;1.10;;;;;;;2.52;100.00;103309.42;1810099;79;26310;-73
2020/12/25 09:43:46;;;;;;;2.87;1.27;;;;;;;2.60;100.00;103307.53;1810201;79;26186;-72
2020/12/25 09:46:15;;;;;;;4.50;1.40;;;;;;;2.64;100.00;103310.78;1810060;79;26209;-72
2020/12/25 09:48:45;;;;;;;2.80;1.20;;;;;;;2.67;100.00;103316.78;1810127;79;26337;-72
2020/12/25 09:51:15;;;;;;;2.70;1.40;;;;;;;2.78;100.00;103311.46;1810019;79;26194;-71
2020/12/25 09:53:45;;;;;;;2.77;1.40;;;;;;;2.71;100.00;103315.91;1810082;79;26220;-75
2020/12/25 09:56:18;;;;;;;1.93;1.30;;;;;;;2.74;100.00;103304.06;1810103;79;26275;-72
2020/12/25 09:58:47;;;;;;;2.07;1.20;;;;;;;2.82;100.00;103303.73;1810194;79;26659;-74
2020/12/25 10:01:19;;;;;;;2.70;1.47;;;;;;;2.84;100.00;103309.89;1810041;79;26283;-74
2020/12/25 10:03:48;;;;;;;2.20;1.30;;;;;;;2.85;100.00;103312.47;1758531;81;26238;-78
2020/12/25 10:06:20;;;;;;;2.67;1.40;;;;;;;2.89;100.00;103315.20;1810090;77;26680;-75
2020/12/25 10:08:50;;;;;;;2.57;1.33;;;;;;;3.01;100.00;103312.42;1809988;79;26278;-75
2020/12/25 10:11:21;;;;;;;5.90;2.37;;;;;;;2.99;100.00;103304.90;1810164;79;26212;-76
2020/12/25 10:13:51;;;;;;;3.17;1.50;;;;;;;3.11;100.00;103306.75;1810152;79;26766;-72
2020/12/25 10:16:21;;;;;;;2.67;1.27;;;;;;;3.01;100.00;103304.70;1810078;79;26260;-77
2020/12/25 10:18:51;;;;;;;2.03;1.20;;;;;;;3.04;100.00;103311.20;1810033;79;26714;-75
2020/12/25 10:21:21;;;;;;;3.17;1.23;;;;;;;3.15;100.00;103317.72;1810101;79;26202;-79
2020/12/25 10:23:50;;;;;;;4.90;1.70;;;;;;;3.23;100.00;103319.58;1758573;82;26250;-75
2020/12/25 10:26:20;;;;;;;3.53;1.70;;;;;;;3.23;100.00;103325.93;1810235;79;26194;-72
2020/12/25 10:28:50;;;;;;;3.63;1.57;;;;;;;3.33;100.00;103329.86;1810014;79;26801;-75
2020/12/25 10:31:20;;;;;;;5.40;1.90;;;;;;;3.40;100.00;103333.08;1758568;82;26323;-75
2020/12/25 10:33:50;;;;;;;4.23;2.00;;;;;;;3.37;100.00;103321.09;1810193;79;26270;-75
2020/12/25 10:36:24;;;;;;;4.73;1.77;;;;;;;3.47;100.00;103320.34;1809951;79;26321;-80
2020/12/25 10:38:54;;;;;;;3.43;1.47;;;;;;;3.49;100.00;103315.54;1809914;79;26302;-73
2020/12/25 10:41:31;;;;;;;4.17;1.20;;;;;;;3.47;100.00;103312.61;1808251;79;26323;-72
2020/12/25 10:44:01;;;;;;;4.10;1.17;;;;;;;3.61;100.00;103315.98;1790028;79;26624;-71
2020/12/25 10:46:31;;;;;;;2.80;1.77;;;;;;;3.71;100.00;103310.28;1790792;79;26215;-73
2020/12/25 10:49:01;;;;;;;1.90;1.20;;;;;;;3.79;100.00;103313.84;1809952;79;26276;-76
2020/12/25 10:51:31;;;;;;;2.07;1.03;;;;;;;3.90;100.00;103307.92;1809994;79;26242;-74
2020/12/25 10:54:00;;;;;;;2.40;1.00;;;;;;;3.99;100.00;103305.98;1758470;81;26292;-72
2020/12/25 10:56:31;;;;;;;2.90;1.50;;;;;;;4.00;100.00;103315.95;1810049;79;26201;-75
2020/12/25 10:59:01;;;;;;;3.93;1.40;;;;;;;3.97;100.00;103320.45;1758486;82;26245;-75
2020/12/25 11:01:32;;;;;;;2.03;1.10;;;;;;;3.87;100.00;103313.80;1810117;79;26217;-72
2020/12/25 11:04:02;;;;;;;4.50;1.53;;;;;;;3.85;100.00;103315.02;1810007;79;26312;-72
2020/12/25 11:06:33;;;;;;;1.50;1.10;;;;;;;3.95;100.00;103314.25;1809898;78;26850;-72
2020/12/25 11:09:04;;;;;;;3.43;1.63;;;;;;;4.04;100.00;103309.91;1809967;79;26275;-77
2020/12/25 11:11:36;;;;;;;3.73;1.20;;;;;;;4.21;100.00;103311.16;1809977;79;26286;-72
2020/12/25 11:14:06;;;;;;;3.00;0.93;;;;;;;4.27;100.00;103307.17;1809974;79;26388;-74
2020/12/25 11:16:38;;;;;;;3.13;1.60;;;;;;;4.39;100.00;103304.32;1810104;79;26217;-77
2020/12/25 11:19:11;;;;;;;2.33;0.93;;;;;;;4.36;100.00;103303.32;1810087;79;26281;-75
2020/12/25 11:21:41;;;;;;;2.87;1.10;;;;;;;4.35;100.00;103301.60;1810065;79;26216;-73
2020/12/25 11:24:12;;;;;;;3.17;1.20;;;;;;;4.30;100.00;103297.68;1758591;82;26320;-72
2020/12/25 11:26:42;;;;;;;2.33;1.57;;;;;;;4.33;100.00;103299.54;1810315;79;26247;-75
2020/12/25 11:29:13;;;;;;;3.30;1.80;;;;;;;4.37;100.00;103304.14;1810164;79;26288;-77
2020/12/25 11:31:44;;;;;;;2.77;1.50;;;;;;;4.39;100.00;103297.44;1810137;79;26271;-73
2020/12/25 11:34:14;;;;;;;1.80;1.40;;;;;;;4.43;100.00;103297.92;1810189;79;26734;-74
2020/12/25 11:36:44;;;;;;;3.53;1.40;;;;;;;4.44;100.00;103296.37;1758604;81;26241;-73
2020/12/25 11:39:14;;;;;;;2.03;1.20;;;;;;;4.50;100.00;103291.48;1810297;79;26209;-73